Time;durP1;ratioP1;P1;durP2;ratioP2;P2;SDS_P1;SDS_P2;PMS_P1;PMS_P2;Temp;Humidity;BMP_temperature;BMP_pressure;BME280_temperature;BME280_humidity;BME280_pressure;Samples;Min_cycle;Max_cycle;Signal;HPM_P1;HPM_P2
2021/12/14 00:00:26;;;;;;;1.63;0.63;;;16.90;53.90;;;;;;5128836;28;20047;-63
2021/12/14 00:02:52;;;;;;;1.98;0.50;;;16.90;53.90;;;;;;5128635;28;20050;-63
2021/12/14 00:05:21;;;;;;;1.30;0.50;;;16.80;53.90;;;;;;5128676;28;20044;-62
2021/12/14 00:07:47;;;;;;;0.90;0.50;;;16.90;53.90;;;;;;5128723;28;20110;-63
2021/12/14 00:11:08;;;;;;;1.83;0.50;;;16.90;53.90;;;;;;5129866;27;20040;-64
2021/12/14 00:13:21;;;;;;;1.20;0.43;;;16.90;53.90;;;;;;5129616;28;20449;-63
2021/12/14 00:15:51;;;;;;;1.35;0.50;;;16.90;53.90;;;;;;5128671;28;20046;-63
2021/12/14 00:18:17;;;;;;;1.23;0.55;;;16.80;53.90;;;;;;5128647;28;20122;-63
2021/12/14 00:20:49;;;;;;;1.27;0.40;;;16.80;53.90;;;;;;5128287;28;20532;-63
2021/12/14 00:25:59;;;;;;;0.80;0.40;;;16.80;53.90;;;;;;5130375;27;20358;-63
2021/12/14 00:28:29;;;;;;;1.02;0.55;;;16.80;53.80;;;;;;5130290;27;20089;-63
2021/12/14 00:30:56;;;;;;;;;;;16.80;53.90;;;;;;5129402;28;20039;-63
2021/12/14 00:33:26;;;;;;;1.02;0.73;;;16.80;53.70;;;;;;5128818;28;20394;-64
2021/12/14 00:35:52;;;;;;;1.77;0.80;;;16.80;53.90;;;;;;5128896;27;20050;-63
2021/12/14 00:38:21;;;;;;;1.58;0.70;;;16.70;53.80;;;;;;5128753;28;20032;-63
2021/12/14 00:40:52;;;;;;;1.95;0.85;;;16.80;53.90;;;;;;5130079;27;20035;-63
2021/12/14 00:43:18;;;;;;;1.05;0.50;;;16.70;53.80;;;;;;5130022;27;20040;-64
2021/12/14 00:45:45;;;;;;;1.58;0.60;;;16.70;54.50;;;;;;5128636;27;20455;-63
2021/12/14 00:48:13;;;;;;;1.50;0.90;;;16.70;53.80;;;;;;5128811;28;20046;-63
2021/12/14 00:50:42;;;;;;;2.05;0.63;;;16.80;53.90;;;;;;5129869;27;20433;-62
2021/12/14 00:53:07;;;;;;;1.50;0.70;;;16.70;53.80;;;;;;5129850;27;20039;-63
2021/12/14 00:55:42;;;;;;;2.88;1.02;;;16.70;53.80;;;;;;5129956;28;20402;-62
2021/12/14 00:58:09;;;;;;;1.48;0.70;;;16.70;53.80;;;;;;5128418;28;20048;-63
2021/12/14 01:00:47;;;;;;;1.77;0.70;;;16.70;53.80;;;;;;5128422;28;20085;-63
2021/12/14 01:03:13;;;;;;;1.00;0.75;;;16.70;53.80;;;;;;5128557;28;20059;-63
2021/12/14 01:05:45;;;;;;;1.30;0.70;;;16.70;53.80;;;;;;5129289;27;20500;-63
2021/12/14 01:08:16;;;;;;;1.70;0.85;;;16.70;53.80;;;;;;5129395;27;20039;-62
2021/12/14 01:10:51;;;;;;;2.10;0.70;;;16.70;53.80;;;;;;5129613;27;20452;-62
2021/12/14 01:13:23;;;;;;;1.90;0.68;;;16.70;53.80;;;;;;5129468;27;20043;-64
2021/12/14 01:16:15;;;;;;;1.00;0.50;;;16.70;53.80;;;;;;5128178;28;20046;-63
2021/12/14 01:18:48;;;;;;;1.98;0.80;;;16.70;53.80;;;;;;5128019;28;20121;-63
2021/12/14 01:24:01;;;;;;;1.63;0.70;;;16.70;53.80;;;;;;5049049;27;4062649;-63
2021/12/14 01:26:33;;;;;;;2.03;0.70;;;16.70;53.80;;;;;;5153146;27;20129;-62
2021/12/14 01:29:01;;;;;;;1.30;0.93;;;16.70;53.80;;;;;;5153193;27;20375;-62
2021/12/14 01:31:34;;;;;;;1.45;0.82;;;16.60;53.70;;;;;;5153012;27;20042;-63
2021/12/14 01:34:06;;;;;;;1.10;0.70;;;16.60;53.70;;;;;;5152996;27;20470;-63
2021/12/14 01:44:49;;;;;;;1.30;0.50;;;16.60;53.80;;;;;;5130284;27;20403;-63
2021/12/14 01:47:20;;;;;;;1.20;0.63;;;16.60;53.70;;;;;;5128991;27;20101;-63
2021/12/14 01:49:50;;;;;;;1.50;0.82;;;16.60;53.80;;;;;;5128815;28;20035;-63
2021/12/14 01:52:20;;;;;;;1.45;0.95;;;16.60;53.80;;;;;;5130379;27;20035;-63
2021/12/14 01:54:53;;;;;;;1.17;0.40;;;16.60;53.70;;;;;;5128875;28;20050;-63
2021/12/14 01:57:21;;;;;;;1.02;0.70;;;16.60;54.50;;;;;;5129081;28;20604;-63
2021/12/14 01:59:54;;;;;;;2.15;0.90;;;16.60;53.70;;;;;;5130028;27;20545;-62
2021/12/14 02:05:15;;;;;;;2.25;0.82;;;16.60;53.70;;;;;;5089378;28;20397;-62
2021/12/14 02:07:41;;;;;;;2.13;0.93;;;16.60;53.80;;;;;;5088189;28;20033;-63
2021/12/14 02:10:15;;;;;;;1.23;0.75;;;16.60;53.70;;;;;;5105036;28;20044;-62
2021/12/14 02:12:44;;;;;;;1.63;0.70;;;16.60;53.70;;;;;;5088349;28;20393;-63
2021/12/14 02:15:19;;;;;;;1.63;0.93;;;16.60;53.70;;;;;;5088051;28;20036;-63
2021/12/14 02:17:45;;;;;;;1.42;1.20;;;16.50;53.70;;;;;;5088215;28;20087;-62
2021/12/14 02:20:16;;;;;;;3.13;1.67;;;16.50;53.70;;;;;;5089146;28;20119;-63
2021/12/14 02:22:43;;;;;;;1.42;0.88;;;16.50;53.70;;;;;;5087683;28;20072;-63
2021/12/14 02:25:13;;;;;;;1.40;0.82;;;16.60;53.70;;;;;;5088133;28;20044;-63
2021/12/14 02:27:43;;;;;;;1.40;0.73;;;16.80;53.40;;;;;;5088029;28;20503;-63
2021/12/14 02:30:15;;;;;;;0.90;0.40;;;17.50;52.10;;;;;;5089054;28;20123;-63
2021/12/14 02:32:41;;;;;;;1.48;0.80;;;18.50;50.80;;;;;;5088959;28;20399;-62
2021/12/14 02:35:11;;;;;;;1.13;0.50;;;19.80;47.50;;;;;;5088945;28;20039;-63
2021/12/14 02:40:53;;;;;;;1.02;0.50;;;21.00;44.80;;;;;;5130316;27;20466;-62
2021/12/14 02:43:11;;;;;;;1.17;0.57;;;23.30;40.40;;;;;;5128868;28;20494;-63
2021/12/14 02:45:37;;;;;;;1.05;0.40;;;23.90;38.70;;;;;;5129203;28;20108;-63
2021/12/14 02:48:08;;;;;;;1.20;0.50;;;24.40;37.80;;;;;;5129073;28;20082;-62
2021/12/14 02:50:34;;;;;;;1.02;0.40;;;24.70;37.20;;;;;;5129119;28;20052;-63
2021/12/14 02:53:00;;;;;;;0.98;0.63;;;25.10;36.60;;;;;;5128768;28;20069;-63
2021/12/14 02:55:27;;;;;;;1.27;0.50;;;25.30;36.00;;;;;;5130226;27;20042;-63
2021/12/14 02:57:57;;;;;;;0.80;0.47;;;25.60;35.60;;;;;;5128598;28;20047;-63
2021/12/14 03:00:28;;;;;;;1.60;0.60;;;25.80;35.20;;;;;;5128756;28;20039;-63
2021/12/14 03:02:56;;;;;;;1.08;0.55;;;25.90;35.10;;;;;;5128850;28;20398;-63
2021/12/14 03:05:29;;;;;;;0.80;0.40;;;25.90;35.00;;;;;;5130080;27;20118;-63
2021/12/14 03:08:03;;;;;;;0.82;0.50;;;25.80;35.10;;;;;;5129947;27;20444;-62
2021/12/14 03:10:39;;;;;;;0.52;0.30;;;25.60;35.20;;;;;;5128817;28;20051;-62
2021/12/14 03:13:10;;;;;;;0.80;0.40;;;25.40;35.50;;;;;;5128665;28;20039;-62
2021/12/14 03:15:48;;;;;;;1.80;0.63;;;25.20;35.90;;;;;;5128668;28;20042;-63
2021/12/14 03:18:19;;;;;;;1.00;0.40;;;24.80;36.20;;;;;;5128205;28;20054;-63
2021/12/14 03:20:49;;;;;;;2.03;0.60;;;24.60;36.70;;;;;;5129673;27;20050;-63
2021/12/14 03:26:01;;;;;;;1.05;0.68;;;24.00;37.60;;;;;;5130360;27;20387;-62
2021/12/14 03:28:29;;;;;;;1.85;0.57;;;23.70;38.10;;;;;;5128929;28;20514;-63
2021/12/14 03:34:00;;;;;;;0.70;0.40;;;23.20;39.00;;;;;;5110156;27;20474;-63
2021/12/14 03:36:31;;;;;;;1.38;0.70;;;23.00;39.40;;;;;;5108415;28;20491;-63
2021/12/14 03:44:38;;;;;;;1.15;0.75;;;22.60;40.20;;;;;;5109667;27;20449;-62
2021/12/14 03:52:34;;;;;;;3.10;0.60;;;22.50;40.30;;;;;;5130316;27;20424;-63
2021/12/14 03:55:05;;;;;;;1.02;0.82;;;22.50;40.30;;;;;;5129016;28;20043;-63
2021/12/14 03:57:31;;;;;;;1.80;0.65;;;22.50;40.30;;;;;;5129240;28;20046;-64
2021/12/14 03:59:59;;;;;;;1.05;0.65;;;22.60;40.20;;;;;;5129151;28;20554;-63
2021/12/14 04:02:25;;;;;;;1.17;0.75;;;22.60;40.10;;;;;;5128843;28;20110;-63
2021/12/14 04:07:32;;;;;;;0.88;0.43;;;22.70;39.90;;;;;;5150138;27;1244697;-63
2021/12/14 04:09:57;;;;;;;1.27;0.57;;;23.20;39.30;;;;;;5152997;27;20134;-62
2021/12/14 04:12:23;;;;;;;1.45;0.73;;;23.30;38.80;;;;;;5153318;27;20117;-63
2021/12/14 04:14:54;;;;;;;0.98;0.60;;;23.60;38.40;;;;;;5152999;27;20481;-63
2021/12/14 04:17:22;;;;;;;1.13;0.60;;;23.80;38.00;;;;;;5153250;27;20131;-62
2021/12/14 04:19:48;;;;;;;1.05;0.70;;;24.00;37.60;;;;;;5152967;27;20516;-64
2021/12/14 04:22:19;;;;;;;0.95;0.50;;;24.10;37.40;;;;;;5171600;27;20066;-62
2021/12/14 04:24:47;;;;;;;1.13;0.85;;;24.10;37.20;;;;;;5152804;27;20042;-63
2021/12/14 04:27:20;;;;;;;1.20;0.60;;;24.10;37.10;;;;;;5152815;27;20335;-63
2021/12/14 04:29:46;;;;;;;1.80;0.60;;;24.10;37.20;;;;;;5171330;27;20051;-63
2021/12/14 04:32:14;;;;;;;1.13;0.63;;;24.10;37.30;;;;;;5152990;27;20121;-63
2021/12/14 04:34:42;;;;;;;1.13;0.73;;;24.00;37.30;;;;;;5171431;27;20079;-62
2021/12/14 04:37:09;;;;;;;1.00;0.73;;;23.90;37.50;;;;;;5171182;27;20042;-62
2021/12/14 04:53:43;;;;;;;1.00;0.60;;;23.20;38.80;;;;;;5128974;27;20040;-63
2021/12/14 04:56:17;;;;;;;1.23;0.70;;;23.10;39.00;;;;;;5128924;28;20088;-63
2021/12/14 04:58:48;;;;;;;0.80;0.50;;;23.00;39.10;;;;;;5128826;28;20564;-63
2021/12/14 05:01:15;;;;;;;0.90;0.70;;;22.90;39.20;;;;;;5128574;28;20089;-63
2021/12/14 05:06:25;;;;;;;1.17;0.80;;;22.90;39.40;;;;;;5150965;27;20118;-63
2021/12/14 05:09:36;;;;;;;1.02;0.70;;;22.80;39.50;;;;;;5111781;28;20083;-63
2021/12/14 05:14:48;;;;;;;1.92;0.60;;;22.70;39.50;;;;;;5130378;27;20305;-63
2021/12/14 05:17:23;;;;;;;1.88;0.70;;;22.70;39.60;;;;;;5128831;28;20039;-63
2021/12/14 05:19:51;;;;;;;1.20;0.80;;;22.70;39.50;;;;;;5130286;27;20039;-64
2021/12/14 05:22:22;;;;;;;1.60;0.98;;;22.80;39.50;;;;;;5130327;27;20075;-63
2021/12/14 05:24:51;;;;;;;1.45;0.82;;;22.80;40.20;;;;;;5128983;28;20078;-63
2021/12/14 05:27:26;;;;;;;1.17;0.80;;;22.90;39.40;;;;;;5129059;28;20479;-63
2021/12/14 05:30:05;;;;;;;1.95;0.80;;;22.90;39.20;;;;;;5129032;28;20121;-63
2021/12/14 05:32:34;;;;;;;1.00;0.60;;;22.90;39.10;;;;;;5128635;28;20043;-63
2021/12/14 05:35:00;;;;;;;0.75;0.45;;;23.00;39.00;;;;;;5130093;27;20045;-63
2021/12/14 05:37:30;;;;;;;1.30;0.65;;;23.10;39.00;;;;;;5128881;27;20035;-64
2021/12/14 05:40:00;;;;;;;1.30;0.60;;;23.10;38.80;;;;;;5129981;27;20086;-62
2021/12/14 05:45:23;;;;;;;1.42;0.85;;;23.10;38.70;;;;;;5129596;28;20045;-62
2021/12/14 05:47:57;;;;;;;1.17;0.80;;;23.10;38.70;;;;;;5128642;28;20051;-63
2021/12/14 05:50:29;;;;;;;1.42;0.80;;;23.20;38.60;;;;;;5128364;28;20402;-64
2021/12/14 05:52:55;;;;;;;0.95;0.52;;;23.20;38.60;;;;;;5129446;27;20482;-64
2021/12/14 05:55:26;;;;;;;0.85;0.65;;;23.20;38.70;;;;;;5128554;28;20051;-64
2021/12/14 05:57:54;;;;;;;1.67;1.15;;;23.20;38.60;;;;;;5128137;28;20047;-63
2021/12/14 06:00:21;;;;;;;1.00;0.75;;;23.10;38.60;;;;;;5129466;27;20398;-64
2021/12/14 06:02:47;;;;;;;1.35;0.80;;;23.10;38.80;;;;;;5128157;28;20474;-64
2021/12/14 06:05:17;;;;;;;2.00;0.70;;;23.10;38.80;;;;;;5128364;28;20047;-63
2021/12/14 06:07:43;;;;;;;0.95;0.68;;;23.10;38.90;;;;;;5128112;28;20051;-62
2021/12/14 06:10:12;;;;;;;1.15;0.75;;;23.00;38.90;;;;;;5129283;27;20077;-64
2021/12/14 06:12:39;;;;;;;1.00;0.70;;;23.00;39.10;;;;;;5127645;28;20081;-64
2021/12/14 06:15:10;;;;;;;1.10;0.80;;;22.90;39.20;;;;;;5129160;27;20044;-64
2021/12/14 06:17:39;;;;;;;1.35;0.98;;;22.80;39.20;;;;;;5127855;28;20046;-64
2021/12/14 06:22:47;;;;;;;1.25;0.95;;;22.80;39.30;;;;;;5153097;27;1160031;-64
2021/12/14 06:25:17;;;;;;;1.88;0.88;;;22.70;39.40;;;;;;5152781;27;20038;-62
2021/12/14 06:27:45;;;;;;;1.10;0.90;;;22.70;39.50;;;;;;5152069;27;20049;-63
2021/12/14 06:30:21;;;;;;;1.63;1.10;;;22.60;39.60;;;;;;5151852;27;20042;-64
2021/12/14 06:32:53;;;;;;;1.50;0.93;;;22.60;39.70;;;;;;5152967;27;20042;-64
2021/12/14 06:35:25;;;;;;;1.63;0.55;;;22.60;39.70;;;;;;5171586;27;20041;-63
2021/12/14 06:38:30;;;;;;;1.48;0.75;;;22.60;39.80;;;;;;5151584;27;20091;-65
2021/12/14 06:46:20;;;;;;;7.75;6.78;;;22.60;39.90;;;;;;5129679;27;20923;-66
2021/12/14 06:48:53;;;;;;;8.57;7.75;;;22.10;41.10;;;;;;5126666;28;20544;-64
2021/12/14 06:54:07;;;;;;;9.73;8.93;;;21.60;42.10;;;;;;5129620;27;20440;-66
2021/12/14 06:56:34;;;;;;;9.80;8.90;;;21.40;42.60;;;;;;5128140;28;20050;-66
2021/12/14 06:59:05;;;;;;;9.73;8.93;;;21.30;42.70;;;;;;5129239;27;20865;-66
2021/12/14 07:01:42;;;;;;;10.63;9.73;;;21.30;42.70;;;;;;5121571;28;20039;-64
2021/12/14 07:04:10;;;;;;;10.27;9.38;;;21.40;42.70;;;;;;5114517;27;20049;-66
2021/12/14 07:06:39;;;;;;;7.85;7.00;;;21.50;42.50;;;;;;5118145;27;20031;-64
2021/12/14 07:09:10;;;;;;;7.22;6.00;;;22.20;41.70;;;;;;5117824;27;20031;-63
2021/12/14 07:11:36;;;;;;;;;;;23.00;40.30;;;;;;5113566;27;20050;-63
2021/12/14 07:14:06;;;;;;;3.95;3.65;;;23.70;39.20;;;;;;5124406;27;19987;-63
2021/12/14 07:16:38;;;;;;;3.83;2.72;;;24.20;38.10;;;;;;5112109;27;20060;-64
2021/12/14 07:19:07;;;;;;;3.47;2.30;;;24.50;37.40;;;;;;5113611;27;20444;-63
2021/12/14 07:27:25;;;;;;;5.65;4.65;;;24.70;37.10;;;;;;5084494;27;20126;-63
2021/12/14 07:29:52;;;;;;;9.88;6.35;;;24.00;38.40;;;;;;5071165;28;20067;-66
2021/12/14 07:32:37;;;;;;;10.27;7.95;;;23.70;38.70;;;;;;5083774;28;20037;-67
2021/12/14 07:35:27;;;;;;;8.57;6.03;;;23.30;39.40;;;;;;5093104;28;20177;-66
2021/12/14 07:37:59;;;;;;;8.82;6.97;;;22.80;40.20;;;;;;5052283;28;20180;-65
2021/12/14 07:40:39;;;;;;;10.75;9.65;;;22.50;41.00;;;;;;5057561;28;20045;-64
2021/12/14 07:43:10;;;;;;;12.38;10.52;;;22.20;41.50;;;;;;5055703;28;20171;-65
2021/12/14 07:45:36;;;;;;;15.75;11.27;;;21.90;42.10;;;;;;5061113;28;20043;-65
2021/12/14 07:48:02;;;;;;;11.25;8.48;;;21.70;42.80;;;;;;5090154;28;20041;-66
2021/12/14 07:50:40;;;;;;;9.63;7.03;;;21.50;43.40;;;;;;5090869;28;20041;-67
2021/12/14 07:53:06;;;;;;;9.18;5.97;;;21.40;43.80;;;;;;5084776;28;20060;-66
2021/12/14 07:55:42;;;;;;;6.75;5.15;;;21.40;44.10;;;;;;5053848;28;20041;-67
2021/12/14 07:58:08;;;;;;;13.30;5.32;;;21.20;44.60;;;;;;5090691;28;20059;-66
2021/12/14 08:00:39;;;;;;;8.38;7.40;;;21.10;44.90;;;;;;5077099;28;20664;-66
2021/12/14 08:03:07;;;;;;;11.50;10.40;;;21.10;45.30;;;;;;5055125;28;20114;-65
2021/12/14 08:08:18;;;;;;;8.88;7.97;;;21.00;45.10;;;;;;5141328;27;20410;-66
2021/12/14 08:10:58;;;;;;;8.65;7.30;;;20.90;45.20;;;;;;5105542;27;20039;-65
2021/12/14 08:13:27;;;;;;;11.37;6.07;;;20.90;45.20;;;;;;5092939;27;20043;-65
2021/12/14 08:15:56;;;;;;;10.63;5.13;;;21.00;45.30;;;;;;5111406;27;20031;-65
2021/12/14 08:21:07;;;;;;;7.28;4.57;;;20.90;45.40;;;;;;5115591;27;1237871;-68
2021/12/14 08:26:36;;;;;;;5.32;3.50;;;21.10;45.40;;;;;;5096645;27;1160984;-66
2021/12/14 08:29:07;;;;;;;4.00;3.65;;;21.00;45.60;;;;;;5095129;27;20058;-65
2021/12/14 08:34:26;;;;;;;7.00;3.20;;;20.80;46.10;;;;;;5090764;27;21290;-66
2021/12/14 08:37:03;;;;;;;4.55;3.03;;;20.70;46.40;;;;;;5085080;28;20475;-67
2021/12/14 08:39:33;;;;;;;4.60;3.38;;;20.60;46.60;;;;;;5091855;28;20064;-65
2021/12/14 08:42:10;;;;;;;3.03;2.72;;;20.50;46.90;;;;;;5089162;28;20039;-66
2021/12/14 08:44:39;;;;;;;4.38;2.58;;;20.50;47.10;;;;;;5094102;28;20039;-67
2021/12/14 08:47:10;;;;;;;5.68;3.05;;;20.40;47.40;;;;;;5091269;28;20070;-65
2021/12/14 08:49:37;;;;;;;5.72;3.22;;;20.40;47.70;;;;;;5098494;28;20051;-65
2021/12/14 08:52:05;;;;;;;6.95;2.83;;;20.30;48.00;;;;;;5092976;28;20667;-65
2021/12/14 08:54:34;;;;;;;3.88;2.67;;;20.20;48.30;;;;;;5094082;28;20097;-63
2021/12/14 08:57:08;;;;;;;4.32;3.17;;;20.20;48.50;;;;;;5096848;28;20048;-66
2021/12/14 08:59:35;;;;;;;3.97;3.03;;;20.10;48.80;;;;;;5109761;28;20063;-67
2021/12/14 09:02:11;;;;;;;4.43;3.20;;;20.20;49.00;;;;;;5093588;28;20041;-66
2021/12/14 09:04:42;;;;;;;5.45;3.05;;;20.10;49.20;;;;;;5109933;28;20051;-66
2021/12/14 09:07:24;;;;;;;4.25;3.22;;;20.10;49.30;;;;;;5090679;28;20108;-66
2021/12/14 09:09:49;;;;;;;5.03;3.25;;;20.10;49.30;;;;;;5094326;28;20102;-67
2021/12/14 09:12:24;;;;;;;5.78;3.25;;;20.00;50.20;;;;;;5095056;28;20479;-65
2021/12/14 09:14:52;;;;;;;4.50;3.05;;;20.00;49.70;;;;;;5096250;28;20139;-66
2021/12/14 09:17:19;;;;;;;7.20;2.85;;;20.00;49.80;;;;;;5095703;28;20053;-66
2021/12/14 09:19:51;;;;;;;8.10;6.88;;;20.00;49.80;;;;;;5109940;28;20758;-67
2021/12/14 09:22:23;;;;;;;10.30;7.38;;;20.00;49.60;;;;;;5096486;28;20044;-66
2021/12/14 09:24:49;;;;;;;10.15;9.18;;;19.90;49.30;;;;;;5093694;28;20040;-64
2021/12/14 09:27:20;;;;;;;11.98;10.88;;;19.90;49.20;;;;;;5097633;28;20790;-67
2021/12/14 09:29:47;;;;;;;12.63;11.32;;;19.80;48.90;;;;;;5095964;28;20040;-64
2021/12/14 09:32:21;;;;;;;9.80;8.90;;;19.70;48.70;;;;;;5093434;28;20044;-66
2021/12/14 09:34:47;;;;;;;8.70;7.03;;;19.70;48.90;;;;;;5096707;28;20032;-64
2021/12/14 09:37:14;;;;;;;7.65;7.05;;;19.70;49.10;;;;;;5096034;28;20431;-67
2021/12/14 09:39:46;;;;;;;11.88;10.75;;;19.80;49.20;;;;;;5097546;28;20383;-67
2021/12/14 09:42:20;;;;;;;11.68;10.48;;;19.80;48.90;;;;;;5095351;28;20100;-65
2021/12/14 09:44:50;;;;;;;11.40;8.07;;;19.80;48.80;;;;;;5086335;28;20082;-67
2021/12/14 09:47:20;;;;;;;8.63;7.47;;;19.90;48.70;;;;;;5092627;28;20597;-66
2021/12/14 09:49:49;;;;;;;7.03;6.38;;;20.40;48.20;;;;;;5078989;28;20154;-66
2021/12/14 09:52:24;;;;;;;7.18;5.10;;;20.90;47.20;;;;;;5078131;28;20040;-66
2021/12/14 09:54:50;;;;;;;6.88;4.05;;;21.30;46.20;;;;;;5093072;28;20083;-66
2021/12/14 09:57:22;;;;;;;3.72;3.20;;;21.70;45.20;;;;;;5074644;28;20040;-67
2021/12/14 09:59:49;;;;;;;3.70;3.40;;;22.00;44.60;;;;;;5075456;28;20616;-65
2021/12/14 10:02:27;;;;;;;5.45;4.18;;;22.10;44.10;;;;;;5081914;28;20044;-65
2021/12/14 10:04:58;;;;;;;6.55;3.25;;;22.20;43.90;;;;;;5083880;28;20130;-65
2021/12/14 10:07:25;;;;;;;10.02;3.72;;;22.20;43.90;;;;;;5078669;28;20079;-64
2021/12/14 10:09:54;;;;;;;8.10;3.85;;;22.10;44.80;;;;;;5080981;28;20075;-66
2021/12/14 10:18:09;;;;;;;3.45;2.67;;;21.80;44.60;;;;;;5108997;27;1160802;-65
2021/12/14 10:20:42;;;;;;;4.22;2.92;;;21.80;44.90;;;;;;5107772;27;20078;-64
2021/12/14 10:23:09;;;;;;;4.82;3.08;;;21.60;45.70;;;;;;5133623;27;20077;-67
2021/12/14 10:25:35;;;;;;;3.25;2.25;;;21.50;45.30;;;;;;5101938;27;20034;-66
2021/12/14 10:28:01;;;;;;;3.10;2.22;;;21.30;46.00;;;;;;5114320;27;21602;-66
2021/12/14 10:30:34;;;;;;;2.63;2.33;;;21.10;46.70;;;;;;5117150;27;20046;-66
2021/12/14 10:33:01;;;;;;;3.40;2.60;;;20.90;47.50;;;;;;5120547;27;20070;-65
2021/12/14 10:35:39;;;;;;;4.93;2.35;;;20.80;48.10;;;;;;5113660;27;20043;-69
2021/12/14 10:38:17;;;;;;;5.43;2.30;;;20.70;49.00;;;;;;5117734;27;20044;-63
2021/12/14 10:43:33;;;;;;;5.65;1.90;;;20.50;49.90;;;;;;5135694;27;20047;-62
2021/12/14 10:46:05;;;;;;;4.47;2.20;;;20.40;50.00;;;;;;5114109;27;20093;-65
2021/12/14 10:48:35;;;;;;;8.25;2.92;;;20.30;50.10;;;;;;5133856;27;20035;-67
2021/12/14 10:51:05;;;;;;;2.85;2.13;;;20.30;50.30;;;;;;5133325;27;20599;-67
2021/12/14 10:53:31;;;;;;;3.67;2.17;;;20.20;50.30;;;;;;5116801;27;20117;-66
2021/12/14 10:56:11;;;;;;;7.07;2.35;;;20.10;50.70;;;;;;5135254;27;20531;-65
2021/12/14 10:58:37;;;;;;;6.80;2.08;;;20.10;51.10;;;;;;5115088;27;20039;-65
2021/12/14 11:01:08;;;;;;;5.95;2.45;;;20.00;52.00;;;;;;5131661;27;20039;-67
2021/12/14 11:03:40;;;;;;;8.55;2.80;;;20.00;51.20;;;;;;5131293;27;20110;-66
2021/12/14 11:06:13;;;;;;;10.82;6.60;;;20.00;51.20;;;;;;5121560;27;20892;-65
2021/12/14 11:08:56;;;;;;;11.10;8.38;;;19.90;51.20;;;;;;5135602;27;20039;-66
2021/12/14 11:11:33;;;;;;;10.60;9.02;;;19.90;50.90;;;;;;5136801;27;20533;-66
2021/12/14 11:14:01;;;;;;;14.95;8.07;;;19.80;50.60;;;;;;5118668;27;20055;-65
2021/12/14 11:19:44;;;;;;;12.15;8.50;;;19.70;50.50;;;;;;5090947;28;20101;-65
2021/12/14 11:22:25;;;;;;;12.63;9.25;;;19.70;50.60;;;;;;5105900;28;20558;-67
2021/12/14 11:24:59;;;;;;;9.15;8.25;;;19.70;50.90;;;;;;5091969;28;20056;-67
2021/12/14 11:27:29;;;;;;;7.75;6.45;;;19.90;50.30;;;;;;5090436;28;20057;-68
2021/12/14 11:33:26;;;;;;;6.85;4.60;;;20.70;49.10;;;;;;5060059;27;20501;-68
2021/12/14 12:01:14;;;;;;;7.53;6.80;;;23.30;43.00;;;;;;5074805;27;20373;-67
2021/12/14 12:03:43;;;;;;;12.65;6.78;;;21.50;46.00;;;;;;5073066;28;20052;-64
2021/12/14 12:22:59;;;;;;;4.13;2.70;;;20.90;51.00;;;;;;5112673;27;20452;-63
2021/12/14 12:30:52;;;;;;;4.78;2.55;;;20.80;51.10;;;;;;5053707;27;21073;-65
2021/12/14 12:33:39;;;;;;;5.65;2.05;;;20.60;51.40;;;;;;5077986;28;20488;-65
2021/12/14 12:41:58;;;;;;;4.70;1.48;;;20.50;51.40;;;;;;5060009;28;20471;-65
2021/12/14 12:47:09;;;;;;;6.50;1.55;;;20.40;52.50;;;;;;5089955;27;20493;-64
2021/12/14 12:57:59;;;;;;;7.20;1.60;;;20.20;54.90;;;;;;5112521;27;20234;-67
2021/12/14 13:00:52;;;;;;;6.07;1.10;;;20.20;55.10;;;;;;5088390;28;20491;-65
2021/12/14 13:06:03;;;;;;;4.03;0.75;;;20.10;55.00;;;;;;5072785;27;20399;-64
2021/12/14 13:08:35;;;;;;;3.20;1.35;;;20.10;55.20;;;;;;5073767;28;20029;-65
2021/12/14 13:11:13;;;;;;;1.92;0.68;;;20.00;55.10;;;;;;5087993;28;20488;-64
2021/12/14 13:13:43;;;;;;;5.38;0.77;;;20.00;55.00;;;;;;5074468;28;20114;-65
2021/12/14 13:27:16;;;;;;;2.45;0.82;;;20.00;55.60;;;;;;5109993;27;1166996;-63
2021/12/14 13:38:00;;;;;;;6.20;1.00;;;20.10;56.20;;;;;;5100264;27;21041;-63
2021/12/14 13:46:05;;;;;;;2.20;0.77;;;20.20;56.40;;;;;;5096847;27;1171236;-64
2021/12/14 13:48:34;;;;;;;2.58;0.77;;;20.30;56.60;;;;;;5120975;27;20505;-62
2021/12/14 13:51:05;;;;;;;3.58;1.42;;;20.30;56.60;;;;;;5116243;27;20112;-64
2021/12/14 13:53:32;;;;;;;3.38;1.83;;;20.30;56.70;;;;;;5117834;27;20089;-64
2021/12/14 13:56:01;;;;;;;2.72;1.27;;;20.30;56.70;;;;;;5114937;27;20050;-63
2021/12/14 13:58:31;;;;;;;3.25;1.13;;;20.30;56.60;;;;;;5132309;27;20043;-63
2021/12/14 14:03:48;;;;;;;3.25;1.27;;;20.20;56.30;;;;;;5070685;28;20468;-63
2021/12/14 14:06:15;;;;;;;2.42;1.10;;;20.20;56.20;;;;;;5069244;28;20494;-63
2021/12/14 14:08:48;;;;;;;3.35;1.55;;;20.10;56.10;;;;;;5070428;28;21866;-65
2021/12/14 14:14:04;;;;;;;7.93;2.80;;;20.00;55.90;;;;;;5113784;27;1166865;-63
2021/12/14 14:16:58;;;;;;;8.38;3.58;;;19.90;55.60;;;;;;5128766;27;20624;-63
2021/12/14 14:19:31;;;;;;;5.38;4.10;;;19.80;55.10;;;;;;5112801;27;20046;-65
2021/12/14 14:22:02;;;;;;;5.07;4.05;;;19.70;55.00;;;;;;5109349;27;20066;-64
2021/12/14 14:24:31;;;;;;;6.05;3.72;;;19.70;55.00;;;;;;5115690;27;20039;-63
2021/12/14 14:26:59;;;;;;;7.80;3.30;;;19.70;54.80;;;;;;5117069;27;20063;-66
2021/12/14 14:29:38;;;;;;;6.00;3.30;;;19.70;54.80;;;;;;5135664;27;20043;-65
2021/12/14 14:32:11;;;;;;;5.55;3.80;;;19.70;54.70;;;;;;5120705;27;20378;-66
2021/12/14 14:34:54;;;;;;;7.05;4.90;;;19.70;54.60;;;;;;5140978;27;20038;-63
2021/12/14 14:37:27;;;;;;;7.72;4.82;;;19.70;54.20;;;;;;5133159;27;20070;-66
2021/12/14 14:40:03;;;;;;;7.43;4.72;;;19.70;53.90;;;;;;5118381;27;20035;-65
2021/12/14 14:42:32;;;;;;;4.43;3.85;;;19.70;53.80;;;;;;5136539;27;20039;-63
2021/12/14 14:45:01;;;;;;;3.75;3.38;;;19.80;53.50;;;;;;5118874;27;20430;-62
2021/12/14 14:52:59;;;;;;;2.58;1.92;;;19.90;53.20;;;;;;5106737;27;20391;-65
2021/12/14 14:58:26;;;;;;;3.85;2.20;;;20.00;52.90;;;;;;5107216;27;20408;-65
2021/12/14 15:09:12;;;;;;;5.10;1.45;;;20.10;52.90;;;;;;5125552;27;20162;-65
2021/12/14 15:11:52;;;;;;;2.80;1.55;;;20.10;53.20;;;;;;5108567;28;20040;-66
2021/12/14 15:14:36;;;;;;;4.53;1.85;;;20.00;53.30;;;;;;5101189;28;20684;-65
2021/12/14 15:19:51;;;;;;;2.10;1.42;;;19.90;53.30;;;;;;5030665;27;4148153;-70
2021/12/14 15:22:28;;;;;;;3.38;1.75;;;19.90;53.40;;;;;;5136421;27;20074;-65
2021/12/14 15:25:07;;;;;;;3.28;1.83;;;19.80;53.40;;;;;;5125586;27;20085;-66
2021/12/14 15:27:44;;;;;;;3.67;2.58;;;19.70;53.40;;;;;;5122143;27;20043;-65
2021/12/14 15:30:17;;;;;;;4.35;2.38;;;19.70;53.60;;;;;;5134485;27;20054;-65
2021/12/14 15:33:06;;;;;;;4.05;1.83;;;19.60;53.70;;;;;;5133805;27;20047;-65
2021/12/14 15:35:36;;;;;;;3.53;2.35;;;19.60;53.70;;;;;;5131649;27;20043;-66
2021/12/14 15:41:02;;;;;;;3.00;2.03;;;19.50;53.80;;;;;;5130510;27;20410;-66
2021/12/14 15:43:33;;;;;;;4.03;1.92;;;19.40;54.10;;;;;;5149021;27;20115;-66
2021/12/14 15:46:06;;;;;;;2.53;2.25;;;19.30;54.10;;;;;;5115957;28;20031;-65
2021/12/14 15:48:42;;;;;;;4.30;1.80;;;19.30;54.20;;;;;;5108116;28;20062;-66
2021/12/14 15:59:29;;;;;;;2.20;1.90;;;19.20;54.40;;;;;;5143867;27;1167463;-65
2021/12/14 16:02:03;;;;;;;1.95;1.58;;;19.10;55.40;;;;;;5160914;27;20110;-65
2021/12/14 16:04:38;;;;;;;2.90;1.65;;;19.00;54.70;;;;;;5144821;27;20110;-64
2021/12/14 16:07:06;;;;;;;2.38;1.90;;;19.00;55.50;;;;;;5151040;27;20037;-65
2021/12/14 16:09:33;;;;;;;2.65;1.85;;;18.90;54.70;;;;;;5144400;27;20117;-66
2021/12/14 16:15:13;;;;;;;2.80;2.28;;;18.90;54.90;;;;;;5130009;27;20383;-64
2021/12/14 16:20:23;;;;;;;2.08;1.92;;;18.90;54.60;;;;;;5130320;27;20350;-64
2021/12/14 16:22:51;;;;;;;2.80;2.30;;;18.80;54.90;;;;;;5130229;27;20039;-64
2021/12/14 16:30:46;;;;;;;3.50;2.80;;;18.80;55.00;;;;;;5150988;27;1154551;-65
2021/12/14 16:36:10;;;;;;;2.50;2.20;;;18.80;54.90;;;;;;5127844;27;20379;-64
2021/12/14 16:41:24;;;;;;;2.67;2.30;;;18.80;54.90;;;;;;5147932;27;1249913;-66
2021/12/14 16:43:56;;;;;;;2.88;2.67;;;18.80;55.00;;;;;;5152380;27;20038;-66
2021/12/14 16:46:30;;;;;;;2.92;2.63;;;18.70;54.90;;;;;;5152747;27;20084;-65
2021/12/14 16:48:58;;;;;;;2.85;2.60;;;18.70;55.00;;;;;;5152568;27;20034;-64
2021/12/14 16:51:25;;;;;;;3.03;2.40;;;18.70;54.90;;;;;;5153040;27;20049;-65
2021/12/14 16:54:03;;;;;;;2.83;2.60;;;18.70;54.90;;;;;;5171655;27;20082;-64
2021/12/14 16:56:31;;;;;;;2.30;2.10;;;18.70;55.00;;;;;;5171346;27;20042;-65
2021/12/14 16:59:03;;;;;;;2.33;2.10;;;18.70;55.00;;;;;;5152690;27;20042;-64
2021/12/14 17:01:29;;;;;;;2.70;2.47;;;18.70;55.00;;;;;;5171549;27;20073;-65
2021/12/14 17:04:00;;;;;;;2.67;2.45;;;18.70;55.00;;;;;;5171459;27;20514;-64
2021/12/14 17:06:30;;;;;;;2.90;2.67;;;18.70;55.10;;;;;;5152903;27;20163;-65
2021/12/14 17:08:59;;;;;;;2.28;2.08;;;18.60;55.00;;;;;;5152895;27;20105;-66
2021/12/14 17:11:28;;;;;;;2.50;2.30;;;18.60;55.10;;;;;;5152725;27;20113;-64
2021/12/14 17:13:56;;;;;;;2.50;2.30;;;18.60;55.10;;;;;;5152620;27;20046;-65